Time;durP1;ratioP1;P1;durP2;ratioP2;P2;SDS_P1;SDS_P2;PMS_P1;PMS_P2;Temp;Humidity;BMP_temperature;BMP_pressure;BME280_temperature;BME280_humidity;BME280_pressure;Samples;Min_cycle;Max_cycle;Signal;HPM_P1;HPM_P2
2021/03/17 00:02:43;;;;;;;15.43;8.77;;;7.30;64.20;;;;;;5117040;28;20038;-68
2021/03/17 00:05:33;;;;;;;14.82;8.73;;;7.30;64.40;;;;;;5116876;28;20464;-67
2021/03/17 00:08:20;;;;;;;14.50;7.75;;;7.30;64.30;;;;;;5117630;28;20180;-67
2021/03/17 00:11:04;;;;;;;14.38;7.93;;;7.30;64.20;;;;;;5104996;28;20039;-67
2021/03/17 00:13:49;;;;;;;15.98;7.03;;;7.30;64.20;;;;;;5115253;28;20089;-67
2021/03/17 00:16:34;;;;;;;16.05;7.88;;;7.30;64.20;;;;;;5116714;28;20089;-67
2021/03/17 00:19:18;;;;;;;19.77;9.15;;;7.30;64.10;;;;;;5116567;28;20046;-67
2021/03/17 00:22:03;;;;;;;14.23;8.30;;;7.30;64.20;;;;;;5116607;28;20052;-68
2021/03/17 00:24:48;;;;;;;16.58;8.55;;;7.30;64.00;;;;;;5116611;28;20039;-69
2021/03/17 00:27:33;;;;;;;15.35;8.48;;;7.30;64.00;;;;;;5117139;28;20077;-68
2021/03/17 00:30:18;;;;;;;13.18;7.55;;;7.30;63.80;;;;;;5116687;28;20066;-68
2021/03/17 00:33:07;;;;;;;13.43;6.93;;;7.30;63.60;;;;;;5116409;28;20138;-68
2021/03/17 00:35:51;;;;;;;17.85;7.93;;;7.30;63.70;;;;;;5116487;28;20462;-68
2021/03/17 00:38:36;;;;;;;15.07;7.50;;;7.20;63.70;;;;;;5116328;28;20105;-68
2021/03/17 00:41:20;;;;;;;21.05;7.60;;;7.30;63.80;;;;;;5116521;28;20047;-68
2021/03/17 00:44:05;;;;;;;11.82;7.53;;;7.20;63.70;;;;;;5116695;28;20562;-68
2021/03/17 00:46:50;;;;;;;15.43;8.15;;;7.20;63.70;;;;;;5116088;28;20416;-68
2021/03/17 00:49:21;;;;;;;15.98;7.88;;;7.20;63.70;;;;;;5097683;28;20051;-68
2021/03/17 00:51:51;;;;;;;14.65;7.10;;;7.20;63.70;;;;;;5081604;28;20096;-68
2021/03/17 00:54:37;;;;;;;13.57;7.13;;;7.20;63.60;;;;;;5116127;28;20089;-69
2021/03/17 00:57:20;;;;;;;11.85;6.70;;;7.20;63.60;;;;;;5097860;28;20501;-70
2021/03/17 00:59:46;;;;;;;11.70;7.43;;;7.20;63.50;;;;;;5116047;28;20055;-69
2021/03/17 01:02:12;;;;;;;16.67;8.07;;;7.20;63.50;;;;;;5116018;28;20481;-70
2021/03/17 01:04:38;;;;;;;16.95;7.57;;;7.20;63.50;;;;;;5080339;28;20032;-69
2021/03/17 01:07:04;;;;;;;15.75;6.47;;;7.10;63.40;;;;;;5097216;28;20097;-69
2021/03/17 01:09:30;;;;;;;14.07;8.15;;;7.20;63.40;;;;;;5115729;28;20100;-70
2021/03/17 01:11:56;;;;;;;14.30;6.78;;;7.20;63.40;;;;;;5085803;28;20027;-70
2021/03/17 01:14:22;;;;;;;13.55;7.10;;;7.20;63.20;;;;;;5076069;28;20036;-69
2021/03/17 01:16:48;;;;;;;14.52;7.15;;;7.20;63.10;;;;;;5115348;28;20035;-70
2021/03/17 01:19:13;;;;;;;14.15;6.65;;;7.20;63.00;;;;;;5097267;28;20031;-70
2021/03/17 01:21:39;;;;;;;13.60;6.80;;;7.20;62.90;;;;;;5115563;28;20080;-69
2021/03/17 01:24:06;;;;;;;15.27;6.50;;;7.20;62.90;;;;;;5115725;28;20039;-69
2021/03/17 01:26:32;;;;;;;14.07;6.45;;;7.20;62.90;;;;;;5097041;28;20519;-69
2021/03/17 01:28:58;;;;;;;11.50;6.30;;;7.20;62.80;;;;;;5097088;28;20046;-69
2021/03/17 01:31:24;;;;;;;13.25;6.10;;;7.20;62.80;;;;;;5096994;28;20043;-69
2021/03/17 01:33:51;;;;;;;12.55;6.72;;;7.20;62.60;;;;;;5115002;28;20126;-69
2021/03/17 01:36:16;;;;;;;11.30;5.63;;;7.20;62.70;;;;;;5096951;28;20126;-69
2021/03/17 01:38:42;;;;;;;12.48;7.05;;;7.10;62.60;;;;;;5097395;28;20062;-69
2021/03/17 01:41:08;;;;;;;15.60;6.38;;;7.10;62.70;;;;;;5079974;28;20049;-70
2021/03/17 01:43:34;;;;;;;11.05;5.82;;;7.10;62.70;;;;;;5115076;28;20031;-68
2021/03/17 01:46:00;;;;;;;13.55;5.85;;;7.10;62.50;;;;;;5115188;28;20035;-68
2021/03/17 01:48:26;;;;;;;16.92;6.68;;;7.10;62.40;;;;;;5114700;28;20147;-68
2021/03/17 01:50:55;;;;;;;11.25;5.80;;;7.10;62.40;;;;;;5115358;28;20039;-69
2021/03/17 01:53:47;;;;;;;11.40;6.07;;;7.10;62.40;;;;;;5079823;28;20388;-68
2021/03/17 01:56:15;;;;;;;12.40;6.40;;;7.10;62.30;;;;;;5091708;28;20487;-68
2021/03/17 01:58:41;;;;;;;13.48;6.10;;;7.10;62.30;;;;;;5114578;28;20035;-68
2021/03/17 02:01:07;;;;;;;9.05;6.05;;;7.10;62.30;;;;;;5079188;28;20039;-68
2021/03/17 02:03:33;;;;;;;8.27;5.38;;;7.10;62.20;;;;;;5114679;28;20122;-68
2021/03/17 02:05:59;;;;;;;11.68;5.38;;;7.10;62.10;;;;;;5096829;28;20040;-69
2021/03/17 02:08:37;;;;;;;10.10;6.00;;;7.10;62.10;;;;;;5114672;28;20039;-68
2021/03/17 02:11:04;;;;;;;11.65;5.50;;;7.10;61.90;;;;;;5092915;28;20039;-68
2021/03/17 02:13:37;;;;;;;12.57;6.28;;;7.10;61.90;;;;;;5100354;28;20125;-68
2021/03/17 02:16:24;;;;;;;13.77;5.88;;;7.10;61.90;;;;;;5114966;28;20070;-69
2021/03/17 02:19:11;;;;;;;10.35;5.97;;;7.10;61.80;;;;;;5114584;28;20082;-68
2021/03/17 02:22:13;;;;;;;10.30;6.10;;;7.10;61.80;;;;;;5114361;28;20036;-69
2021/03/17 02:24:48;;;;;;;9.23;5.68;;;7.10;61.80;;;;;;5114342;28;20035;-69
2021/03/17 02:27:42;;;;;;;9.85;5.65;;;7.10;61.80;;;;;;5114037;28;20040;-69
2021/03/17 02:30:39;;;;;;;9.13;5.30;;;7.10;61.80;;;;;;5114175;28;20051;-68
2021/03/17 02:33:23;;;;;;;;;;;7.00;61.80;;;;;;5114664;28;20032;-69
2021/03/17 02:35:55;;;;;;;12.23;5.65;;;7.00;61.70;;;;;;5114145;28;19912;-69
2021/03/17 02:38:22;;;;;;;11.38;5.32;;;7.10;61.90;;;;;;5113929;28;20047;-69
2021/03/17 02:40:53;;;;;;;12.20;5.60;;;7.10;61.80;;;;;;5113748;28;20040;-69
2021/03/17 02:43:31;;;;;;;11.48;5.55;;;7.00;62.40;;;;;;5114597;28;20481;-69
2021/03/17 02:46:04;;;;;;;10.70;5.13;;;7.10;61.80;;;;;;5114008;28;20066;-70
2021/03/17 02:48:36;;;;;;;7.97;4.57;;;7.00;61.80;;;;;;5113783;28;20039;-69
2021/03/17 02:51:06;;;;;;;9.60;5.25;;;7.00;61.80;;;;;;5113664;28;20040;-68
2021/03/17 02:53:34;;;;;;;10.32;5.72;;;7.00;61.80;;;;;;5095704;28;20564;-69
2021/03/17 02:56:12;;;;;;;7.18;4.63;;;7.00;61.80;;;;;;5113440;28;20557;-67
2021/03/17 02:58:43;;;;;;;8.63;5.18;;;7.00;61.80;;;;;;5113746;28;20042;-70
2021/03/17 03:01:13;;;;;;;13.95;5.60;;;7.00;61.90;;;;;;5113584;28;20039;-69
2021/03/17 03:03:40;;;;;;;10.60;4.93;;;7.00;61.80;;;;;;5078727;28;20084;-69
2021/03/17 03:06:08;;;;;;;11.13;5.28;;;7.00;61.80;;;;;;5113298;28;20055;-70
2021/03/17 03:08:37;;;;;;;12.15;4.88;;;7.00;61.70;;;;;;5095250;28;20413;-70
2021/03/17 03:11:06;;;;;;;11.98;5.63;;;7.00;61.60;;;;;;5112664;28;20059;-69
2021/03/17 03:13:33;;;;;;;10.05;4.55;;;7.00;61.60;;;;;;5102807;28;20036;-69
2021/03/17 03:16:00;;;;;;;11.07;5.00;;;7.00;61.70;;;;;;5084919;28;20114;-69
2021/03/17 03:18:27;;;;;;;11.15;5.03;;;7.00;61.60;;;;;;5103466;28;20039;-69
2021/03/17 03:20:55;;;;;;;11.65;5.35;;;7.00;61.60;;;;;;5086139;28;20036;-69
2021/03/17 03:23:23;;;;;;;9.20;4.50;;;7.00;61.60;;;;;;5113039;28;20051;-69
2021/03/17 03:25:51;;;;;;;9.02;5.18;;;7.00;61.50;;;;;;5113012;28;20070;-69
2021/03/17 03:28:20;;;;;;;7.38;4.13;;;6.90;61.40;;;;;;5113078;28;20035;-69
2021/03/17 03:30:52;;;;;;;9.13;5.10;;;7.00;61.40;;;;;;5098783;28;20509;-70
2021/03/17 03:33:18;;;;;;;11.73;4.72;;;6.90;61.40;;;;;;5094933;28;20047;-69
2021/03/17 03:35:45;;;;;;;9.73;4.63;;;7.00;61.40;;;;;;5113140;28;20066;-70
2021/03/17 03:38:12;;;;;;;9.13;4.88;;;6.90;61.40;;;;;;5094694;28;20503;-69
2021/03/17 03:40:40;;;;;;;9.40;4.43;;;6.90;61.40;;;;;;5112806;28;20038;-68
2021/03/17 03:43:08;;;;;;;9.30;4.95;;;6.90;61.40;;;;;;5094938;28;20485;-68
2021/03/17 03:45:35;;;;;;;10.27;4.72;;;6.90;61.30;;;;;;5112932;28;20024;-68
2021/03/17 03:48:06;;;;;;;14.63;4.82;;;6.90;61.20;;;;;;5094684;28;20046;-67
2021/03/17 03:50:41;;;;;;;8.27;5.00;;;6.90;61.10;;;;;;5077839;28;20036;-66
2021/03/17 03:53:19;;;;;;;10.48;4.32;;;6.90;61.20;;;;;;5113086;28;20490;-67
2021/03/17 03:56:02;;;;;;;7.50;4.75;;;6.90;61.10;;;;;;5112731;28;20036;-67
2021/03/17 03:58:46;;;;;;;7.50;3.90;;;6.90;61.10;;;;;;5112682;28;20075;-67
2021/03/17 04:01:18;;;;;;;8.00;4.10;;;6.90;61.00;;;;;;5094815;28;20497;-68
2021/03/17 04:03:57;;;;;;;10.45;4.78;;;6.90;61.00;;;;;;5112610;28;20440;-67
2021/03/17 04:06:24;;;;;;;7.47;4.55;;;6.90;60.80;;;;;;5077273;28;20055;-67
2021/03/17 04:08:55;;;;;;;8.68;4.40;;;6.90;60.80;;;;;;5101314;28;20028;-68
2021/03/17 04:11:22;;;;;;;7.82;4.05;;;6.90;60.80;;;;;;5101215;28;20152;-68
2021/03/17 04:13:49;;;;;;;8.93;4.25;;;6.90;60.70;;;;;;5094738;28;20031;-68
2021/03/17 04:16:18;;;;;;;7.88;4.93;;;6.90;60.70;;;;;;5108184;28;20553;-68
2021/03/17 04:18:46;;;;;;;7.45;5.20;;;6.90;60.70;;;;;;5102016;28;20047;-68
2021/03/17 04:21:27;;;;;;;9.25;4.20;;;6.90;60.60;;;;;;5100066;28;20040;-68
2021/03/17 04:23:56;;;;;;;8.57;4.00;;;6.90;60.40;;;;;;5075741;28;20398;-67
2021/03/17 04:26:23;;;;;;;8.88;4.68;;;6.90;60.40;;;;;;5075939;28;20106;-68
2021/03/17 04:28:53;;;;;;;9.30;4.80;;;6.90;60.20;;;;;;5058112;28;20042;-68
2021/03/17 04:31:20;;;;;;;10.88;4.60;;;6.80;60.10;;;;;;5057705;28;20032;-68
2021/03/17 04:33:47;;;;;;;7.65;4.53;;;6.80;60.00;;;;;;5075634;28;20062;-68
2021/03/17 04:36:14;;;;;;;12.82;4.00;;;6.80;59.90;;;;;;5093443;28;20028;-68
2021/03/17 04:38:41;;;;;;;8.60;4.28;;;6.80;59.90;;;;;;5089091;28;20127;-69
2021/03/17 04:41:07;;;;;;;8.23;4.07;;;6.80;59.80;;;;;;5097141;28;20042;-70
2021/03/17 04:43:37;;;;;;;7.63;4.22;;;6.80;59.70;;;;;;5097599;28;20126;-68
2021/03/17 04:46:04;;;;;;;9.45;4.10;;;6.80;59.60;;;;;;5092137;28;20063;-68
2021/03/17 04:48:31;;;;;;;6.88;4.50;;;6.80;59.50;;;;;;5115636;28;20092;-69
2021/03/17 04:50:58;;;;;;;7.25;3.53;;;6.90;59.30;;;;;;5113871;28;20043;-69
2021/03/17 04:53:24;;;;;;;6.35;3.80;;;6.80;59.10;;;;;;5097832;28;20034;-67
2021/03/17 04:55:50;;;;;;;5.80;3.58;;;6.90;59.00;;;;;;5116100;28;20036;-66
2021/03/17 04:58:22;;;;;;;7.40;3.72;;;6.80;58.90;;;;;;5115300;28;20383;-66
2021/03/17 05:00:50;;;;;;;8.45;3.65;;;6.80;58.70;;;;;;5097320;28;20409;-67
2021/03/17 05:03:22;;;;;;;6.88;3.33;;;6.80;58.70;;;;;;5097737;28;20070;-69
2021/03/17 05:05:54;;;;;;;9.95;3.80;;;6.80;58.50;;;;;;5096919;28;20138;-69
2021/03/17 05:08:21;;;;;;;10.05;3.47;;;6.80;58.40;;;;;;5097443;28;20105;-69
2021/03/17 05:10:48;;;;;;;7.43;3.58;;;6.80;58.30;;;;;;5115598;28;20059;-69
2021/03/17 05:13:16;;;;;;;7.40;3.63;;;6.80;58.30;;;;;;5115576;28;20032;-70
2021/03/17 05:15:44;;;;;;;7.32;3.20;;;6.80;58.30;;;;;;5080328;28;20544;-69
2021/03/17 05:18:14;;;;;;;4.97;2.80;;;6.80;58.50;;;;;;5115200;28;20046;-69
2021/03/17 05:20:41;;;;;;;6.85;2.95;;;6.80;58.70;;;;;;5115487;28;20158;-71
2021/03/17 05:23:07;;;;;;;7.18;3.20;;;6.80;59.30;;;;;;5096939;28;20505;-70
2021/03/17 05:25:33;;;;;;;4.05;3.33;;;6.80;59.80;;;;;;5115167;28;20038;-70
2021/03/17 05:28:05;;;;;;;5.95;2.90;;;6.80;60.20;;;;;;5115083;28;20515;-70
2021/03/17 05:30:39;;;;;;;6.30;3.30;;;6.80;60.40;;;;;;5115313;28;20099;-69
2021/03/17 05:33:09;;;;;;;8.43;3.60;;;6.80;60.80;;;;;;5115439;28;20036;-69
2021/03/17 05:35:36;;;;;;;6.03;3.10;;;6.80;60.90;;;;;;5096138;28;20081;-69
2021/03/17 05:38:03;;;;;;;6.95;3.05;;;6.80;61.20;;;;;;5096659;28;20032;-69
2021/03/17 05:40:29;;;;;;;4.15;2.70;;;6.80;61.20;;;;;;5115047;28;20042;-68
2021/03/17 05:42:59;;;;;;;5.88;3.10;;;6.90;61.20;;;;;;5115074;28;20040;-69
2021/03/17 05:45:26;;;;;;;5.35;2.95;;;6.90;61.30;;;;;;5096553;28;20040;-69
2021/03/17 05:47:52;;;;;;;4.57;3.53;;;6.90;61.40;;;;;;5114671;28;20035;-69
2021/03/17 05:50:20;;;;;;;6.55;3.17;;;6.90;61.00;;;;;;5097023;28;20039;-69
2021/03/17 05:52:46;;;;;;;8.43;2.75;;;6.90;61.30;;;;;;5114914;28;20557;-68
2021/03/17 05:55:15;;;;;;;8.43;2.63;;;6.90;62.30;;;;;;5096284;28;20148;-69
2021/03/17 05:57:41;;;;;;;4.45;2.75;;;7.00;63.80;;;;;;5114715;28;20042;-69
2021/03/17 06:00:17;;;;;;;7.22;2.95;;;7.00;64.80;;;;;;5114744;28;20044;-68
2021/03/17 06:02:43;;;;;;;9.88;3.80;;;7.10;65.10;;;;;;5114883;28;20039;-68
2021/03/17 06:05:11;;;;;;;6.90;3.08;;;7.10;65.40;;;;;;5114499;28;20097;-68
2021/03/17 06:07:52;;;;;;;8.60;2.40;;;7.20;65.80;;;;;;5114497;28;20047;-68
2021/03/17 06:10:19;;;;;;;7.65;2.95;;;7.20;65.60;;;;;;5114488;28;20150;-68
2021/03/17 06:12:49;;;;;;;4.93;3.05;;;7.20;65.40;;;;;;5114244;28;20039;-68
2021/03/17 06:15:21;;;;;;;5.45;2.70;;;7.30;65.40;;;;;;5114743;28;20504;-66
2021/03/17 06:17:53;;;;;;;6.53;2.83;;;7.20;65.30;;;;;;5114190;28;20447;-67
2021/03/17 06:20:20;;;;;;;8.55;4.40;;;7.30;65.30;;;;;;5113998;28;20100;-67
2021/03/17 06:22:46;;;;;;;7.75;4.05;;;7.30;65.00;;;;;;5095989;28;20055;-67
2021/03/17 06:25:14;;;;;;;8.57;3.85;;;7.40;64.90;;;;;;5114173;28;20035;-68
2021/03/17 06:27:41;;;;;;;7.05;3.40;;;7.40;64.80;;;;;;5114398;28;20039;-68
2021/03/17 06:30:10;;;;;;;4.57;2.65;;;7.50;64.90;;;;;;5113904;28;20031;-66
2021/03/17 06:32:36;;;;;;;5.38;3.10;;;7.50;64.80;;;;;;5113920;28;20438;-66
2021/03/17 06:35:16;;;;;;;6.28;3.00;;;7.50;64.80;;;;;;5113923;28;20146;-65
2021/03/17 06:37:42;;;;;;;7.78;3.53;;;7.50;64.90;;;;;;5114408;28;20043;-66
2021/03/17 06:40:30;;;;;;;4.43;3.00;;;7.50;64.90;;;;;;5114113;28;20043;-70
2021/03/17 06:43:09;;;;;;;7.20;3.75;;;7.60;64.90;;;;;;5113752;28;20040;-70
2021/03/17 06:45:46;;;;;;;7.90;3.58;;;7.60;64.70;;;;;;5113764;28;20397;-70
2021/03/17 06:48:23;;;;;;;7.88;3.50;;;7.60;64.60;;;;;;5114064;28;20084;-68
2021/03/17 06:51:10;;;;;;;7.40;3.85;;;7.60;64.60;;;;;;5113459;28;20035;-70
2021/03/17 06:53:44;;;;;;;4.95;2.70;;;7.70;64.50;;;;;;5113485;28;20382;-69
2021/03/17 06:56:40;;;;;;;9.02;3.28;;;7.70;64.50;;;;;;5113681;28;20070;-70
2021/03/17 06:59:08;;;;;;;12.55;4.40;;;7.70;64.40;;;;;;5092635;28;20040;-68
2021/03/17 07:01:40;;;;;;;6.13;3.20;;;7.70;64.30;;;;;;5113234;28;20081;-68
2021/03/17 07:04:13;;;;;;;10.13;3.45;;;7.80;64.20;;;;;;5113111;28;20040;-69
2021/03/17 07:06:41;;;;;;;6.88;3.55;;;7.80;64.10;;;;;;5113277;28;20051;-67
2021/03/17 07:09:20;;;;;;;6.45;3.10;;;7.80;64.10;;;;;;5113223;28;20049;-68
2021/03/17 07:11:48;;;;;;;6.97;3.38;;;7.80;64.00;;;;;;5113377;28;20051;-69
2021/03/17 07:14:22;;;;;;;6.40;3.55;;;7.90;63.90;;;;;;5095157;28;20038;-69
2021/03/17 07:16:48;;;;;;;9.77;4.35;;;7.90;63.80;;;;;;5113016;28;20485;-68
2021/03/17 07:19:34;;;;;;;10.15;3.95;;;7.90;63.70;;;;;;5095394;28;20036;-69
2021/03/17 07:22:12;;;;;;;;;;;7.90;63.50;;;;;;5113388;28;20047;-69
2021/03/17 07:24:40;;;;;;;7.10;3.28;;;7.90;63.50;;;;;;5094805;28;20348;-69
2021/03/17 07:27:19;;;;;;;5.10;3.33;;;7.90;63.50;;;;;;5112941;28;20121;-69
2021/03/17 07:30:06;;;;;;;7.68;3.60;;;7.90;63.40;;;;;;5113133;28;20036;-69
2021/03/17 07:33:03;;;;;;;8.75;3.10;;;8.00;63.30;;;;;;5112846;28;20516;-69
2021/03/17 07:35:31;;;;;;;6.55;3.85;;;8.00;63.20;;;;;;5112836;28;20501;-66
2021/03/17 07:38:09;;;;;;;7.30;3.20;;;8.00;63.10;;;;;;5113282;28;20122;-65
2021/03/17 07:40:43;;;;;;;5.65;2.88;;;8.00;63.00;;;;;;5112985;28;20041;-65
2021/03/17 07:43:13;;;;;;;6.60;3.33;;;8.00;63.00;;;;;;5095205;28;20402;-66
2021/03/17 07:45:39;;;;;;;10.40;3.78;;;8.10;63.00;;;;;;5112771;28;20110;-67
2021/03/17 07:48:11;;;;;;;8.90;3.83;;;8.10;62.90;;;;;;5112977;28;20043;-65
2021/03/17 07:50:39;;;;;;;9.57;3.90;;;8.10;62.90;;;;;;5113291;28;20059;-68
2021/03/17 07:53:35;;;;;;;8.73;3.58;;;8.10;62.80;;;;;;5113243;28;20059;-67
2021/03/17 07:56:01;;;;;;;6.30;3.15;;;8.10;62.60;;;;;;5113079;28;20035;-68
2021/03/17 07:58:28;;;;;;;4.43;3.03;;;8.10;62.60;;;;;;5115220;28;20063;-68
2021/03/17 08:00:54;;;;;;;7.00;4.00;;;8.20;62.50;;;;;;5098693;28;20530;-69
2021/03/17 08:03:21;;;;;;;14.23;4.60;;;8.20;62.40;;;;;;5098531;28;20505;-69
2021/03/17 08:05:47;;;;;;;7.18;3.88;;;8.20;62.40;;;;;;5117085;28;20067;-69
2021/03/17 08:08:15;;;;;;;4.57;3.22;;;8.20;62.20;;;;;;5098672;28;20508;-70
2021/03/17 08:10:45;;;;;;;7.35;3.80;;;8.20;62.10;;;;;;5116871;28;20034;-70
2021/03/17 08:13:15;;;;;;;6.97;3.58;;;8.20;62.00;;;;;;5098530;28;20499;-69
2021/03/17 08:15:44;;;;;;;8.85;3.53;;;8.30;61.90;;;;;;5116738;28;20072;-69
2021/03/17 08:18:29;;;;;;;5.15;3.97;;;8.20;61.80;;;;;;5116420;28;20175;-69
2021/03/17 08:20:54;;;;;;;9.88;4.30;;;8.30;61.80;;;;;;5116557;28;20079;-70
2021/03/17 08:23:46;;;;;;;7.32;3.60;;;8.30;61.90;;;;;;5116369;28;20464;-70
2021/03/17 08:26:21;;;;;;;10.80;4.50;;;8.30;61.90;;;;;;5098130;28;20060;-69
2021/03/17 08:28:53;;;;;;;7.68;3.97;;;8.30;61.90;;;;;;5116615;28;20027;-70
2021/03/17 08:31:38;;;;;;;9.35;3.88;;;8.40;61.90;;;;;;5098321;28;20035;-70
2021/03/17 08:34:19;;;;;;;9.40;4.40;;;8.40;61.60;;;;;;5116462;28;20402;-70
2021/03/17 08:36:45;;;;;;;12.23;4.50;;;8.40;61.50;;;;;;5098008;28;20499;-69
2021/03/17 08:39:14;;;;;;;11.15;4.47;;;8.40;61.50;;;;;;5116352;28;20135;-69
2021/03/17 08:41:42;;;;;;;9.30;4.60;;;8.40;61.40;;;;;;5116054;28;20038;-70
2021/03/17 08:44:17;;;;;;;8.93;4.35;;;8.50;61.30;;;;;;5116267;28;20039;-70
2021/03/17 08:46:44;;;;;;;9.25;4.13;;;8.50;61.30;;;;;;5115814;28;20539;-70
2021/03/17 08:49:11;;;;;;;7.75;4.57;;;8.50;61.30;;;;;;5116084;28;20038;-69
2021/03/17 08:51:57;;;;;;;16.65;5.68;;;8.50;61.30;;;;;;5115895;28;20040;-63
2021/03/17 08:54:37;;;;;;;17.80;6.07;;;8.60;61.60;;;;;;5064786;28;20044;-70
2021/03/17 08:57:11;;;;;;;11.70;5.05;;;8.60;59.80;;;;;;5115831;28;20044;-70
2021/03/17 08:59:51;;;;;;;13.55;5.68;;;8.60;58.60;;;;;;5097721;28;20048;-71
2021/03/17 09:02:26;;;;;;;13.80;6.40;;;8.60;58.20;;;;;;5116138;28;20404;-70
2021/03/17 09:04:53;;;;;;;19.17;6.05;;;8.50;57.30;;;;;;5115802;28;20036;-70
2021/03/17 09:07:22;;;;;;;15.88;5.88;;;8.50;57.40;;;;;;5115813;28;20065;-69
2021/03/17 09:09:49;;;;;;;16.27;6.60;;;8.40;57.40;;;;;;5114821;28;20047;-69
2021/03/17 09:12:19;;;;;;;18.20;6.28;;;8.40;57.30;;;;;;5115896;28;20104;-69
2021/03/17 09:14:45;;;;;;;10.18;5.20;;;8.40;57.30;;;;;;5097371;28;20449;-70
2021/03/17 09:17:43;;;;;;;16.60;5.72;;;8.30;57.40;;;;;;5115158;28;20130;-76
2021/03/17 09:20:13;;;;;;;19.42;5.68;;;8.30;57.30;;;;;;5080549;28;20051;-75
2021/03/17 09:22:55;;;;;;;17.38;5.75;;;8.30;57.20;;;;;;5115347;28;20047;-74
2021/03/17 09:25:23;;;;;;;11.85;5.32;;;8.20;57.10;;;;;;5097244;28;20035;-74
2021/03/17 09:28:02;;;;;;;13.93;6.05;;;8.30;57.20;;;;;;5096926;28;20035;-75
2021/03/17 09:30:32;;;;;;;15.23;5.50;;;8.20;57.30;;;;;;5115238;28;20043;-75
2021/03/17 09:33:03;;;;;;;21.90;6.28;;;8.20;57.50;;;;;;5115406;28;20401;-75
2021/03/17 09:35:30;;;;;;;19.70;5.28;;;8.20;56.80;;;;;;5114808;28;20135;-83
2021/03/17 09:38:02;;;;;;;19.33;4.20;;;8.20;58.40;;;;;;5097001;28;20038;-84
2021/03/17 09:40:34;;;;;;;17.77;4.85;;;8.20;61.50;;;;;;5115059;28;20138;-83
2021/03/17 09:43:00;;;;;;;16.08;5.72;;;8.30;63.10;;;;;;5115136;28;20110;-84
2021/03/17 09:45:27;;;;;;;16.85;4.97;;;8.50;61.90;;;;;;5115063;28;20118;-83
2021/03/17 09:47:57;;;;;;;15.48;5.00;;;8.50;60.00;;;;;;5115181;28;20044;-77
2021/03/17 09:50:25;;;;;;;18.42;5.45;;;8.50;59.20;;;;;;5115245;28;20145;-76
2021/03/17 09:52:51;;;;;;;16.80;5.53;;;8.50;58.80;;;;;;5115021;28;20520;-76
2021/03/17 09:55:28;;;;;;;18.17;5.30;;;8.60;58.10;;;;;;5114641;28;20055;-77
2021/03/17 09:57:59;;;;;;;21.40;5.63;;;8.50;57.10;;;;;;5114545;28;20035;-77
2021/03/17 10:00:26;;;;;;;17.40;5.70;;;8.60;57.10;;;;;;5114844;28;20043;-77
2021/03/17 10:02:52;;;;;;;24.23;6.93;;;8.50;56.90;;;;;;5114619;28;20404;-76
2021/03/17 10:05:18;;;;;;;23.13;6.78;;;8.50;56.80;;;;;;5114882;28;20038;-78
2021/03/17 10:07:44;;;;;;;25.23;7.38;;;8.50;56.90;;;;;;5115056;28;20094;-77
2021/03/17 10:10:10;;;;;;;30.38;7.43;;;8.50;57.10;;;;;;5114369;28;20024;-78
2021/03/17 10:12:36;;;;;;;21.75;6.93;;;8.50;57.10;;;;;;5114449;28;20036;-78
2021/03/17 10:15:11;;;;;;;29.70;7.45;;;8.50;57.20;;;;;;5114391;28;20040;-78
2021/03/17 10:17:38;;;;;;;25.10;6.70;;;8.50;57.20;;;;;;5095843;28;20031;-77
2021/03/17 10:20:17;;;;;;;32.80;6.93;;;8.50;57.30;;;;;;5095587;28;20064;-73
2021/03/17 10:22:45;;;;;;;23.25;5.88;;;8.50;56.90;;;;;;5095701;28;20038;-74
2021/03/17 10:25:22;;;;;;;19.25;6.25;;;8.50;56.50;;;;;;5114391;28;20043;-77
2021/03/17 10:27:53;;;;;;;17.13;5.55;;;8.50;56.70;;;;;;5096139;28;20042;-76
2021/03/17 10:30:29;;;;;;;29.67;6.75;;;8.50;56.70;;;;;;5114187;28;20122;-77
2021/03/17 10:33:00;;;;;;;21.80;5.88;;;8.50;56.60;;;;;;5096035;28;20421;-75
2021/03/17 10:35:26;;;;;;;21.83;5.88;;;8.50;55.90;;;;;;5113969;28;20039;-77
2021/03/17 10:37:52;;;;;;;25.75;6.05;;;8.40;55.60;;;;;;5113815;28;20125;-74
2021/03/17 10:40:21;;;;;;;24.25;5.35;;;8.40;55.80;;;;;;5114035;28;20043;-74
2021/03/17 10:42:58;;;;;;;21.55;5.35;;;8.40;55.70;;;;;;5114086;28;20071;-74
2021/03/17 10:45:33;;;;;;;18.23;5.35;;;8.40;55.80;;;;;;5113875;28;20045;-75
2021/03/17 10:48:13;;;;;;;18.83;5.13;;;8.40;56.00;;;;;;5113426;28;20457;-74
2021/03/17 10:50:40;;;;;;;25.48;5.47;;;8.40;55.90;;;;;;5113852;28;20036;-75
2021/03/17 10:53:22;;;;;;;27.75;5.45;;;8.40;55.60;;;;;;5095632;28;20035;-76
2021/03/17 10:55:49;;;;;;;24.52;5.90;;;8.40;55.00;;;;;;5114008;28;20402;-72
2021/03/17 10:58:26;;;;;;;27.85;6.95;;;8.40;54.80;;;;;;5113335;28;20036;-73
2021/03/17 11:00:57;;;;;;;27.02;6.07;;;8.40;54.00;;;;;;5113937;28;20520;-72
2021/03/17 11:03:27;;;;;;;25.30;5.88;;;8.40;54.10;;;;;;5113759;28;20035;-72
2021/03/17 11:06:21;;;;;;;31.92;6.55;;;8.40;54.20;;;;;;5113513;28;20035;-72
2021/03/17 11:09:02;;;;;;;22.77;6.78;;;8.40;53.80;;;;;;5095108;28;20556;-72
2021/03/17 11:11:30;;;;;;;30.50;5.63;;;8.40;53.50;;;;;;5113572;28;20070;-71
2021/03/17 11:13:56;;;;;;;31.50;6.50;;;8.30;53.60;;;;;;5095129;28;20126;-72
2021/03/17 11:16:26;;;;;;;25.90;5.57;;;8.30;53.40;;;;;;5113374;28;20122;-72
2021/03/17 11:18:54;;;;;;;27.38;5.93;;;8.30;53.00;;;;;;5095025;28;20521;-72
2021/03/17 11:21:28;;;;;;;35.25;7.28;;;8.30;52.40;;;;;;5094968;28;20449;-72
2021/03/17 11:23:57;;;;;;;31.60;5.68;;;8.30;52.50;;;;;;5113690;28;20039;-72
2021/03/17 11:26:24;;;;;;;25.58;5.10;;;8.30;52.60;;;;;;5112933;28;20405;-72
2021/03/17 11:28:51;;;;;;;30.35;5.43;;;8.20;52.70;;;;;;5113259;28;20035;-71
2021/03/17 11:31:34;;;;;;;26.85;5.93;;;8.20;52.20;;;;;;5113069;28;20036;-72
2021/03/17 11:34:02;;;;;;;24.65;5.65;;;8.20;52.40;;;;;;5112595;28;20043;-78
2021/03/17 11:36:28;;;;;;;36.90;6.47;;;8.20;52.40;;;;;;5113092;28;20066;-78
2021/03/17 11:38:57;;;;;;;34.30;5.72;;;8.20;52.40;;;;;;5113060;28;20096;-74
2021/03/17 11:41:25;;;;;;;29.23;5.28;;;8.20;52.20;;;;;;5113111;28;20036;-74
2021/03/17 11:43:51;;;;;;;27.85;6.20;;;8.10;52.20;;;;;;5094955;28;20042;-74
2021/03/17 11:46:18;;;;;;;30.35;5.05;;;8.10;52.10;;;;;;5112715;28;20040;-74
2021/03/17 11:48:45;;;;;;;33.53;6.18;;;8.10;51.80;;;;;;5094624;28;20071;-74
2021/03/17 11:51:11;;;;;;;32.17;6.13;;;8.10;51.80;;;;;;5113321;28;20494;-72
2021/03/17 11:53:37;;;;;;;23.67;5.32;;;8.00;52.20;;;;;;5112947;28;20044;-73
2021/03/17 11:56:05;;;;;;;34.35;5.18;;;8.00;52.40;;;;;;5112917;28;20439;-71
2021/03/17 11:58:33;;;;;;;41.90;5.93;;;8.00;52.30;;;;;;5113027;28;20088;-74
2021/03/17 12:00:59;;;;;;;28.67;5.65;;;8.00;52.40;;;;;;5112656;28;20508;-72
2021/03/17 12:03:25;;;;;;;27.50;5.45;;;8.10;52.50;;;;;;5112933;28;20050;-72
2021/03/17 12:05:51;;;;;;;29.10;6.22;;;8.10;52.40;;;;;;5112813;28;20032;-73
2021/03/17 12:08:17;;;;;;;30.60;5.32;;;8.10;52.40;;;;;;5113575;28;20390;-72
2021/03/17 12:10:44;;;;;;;34.58;5.78;;;8.10;52.30;;;;;;5112531;28;20038;-73
2021/03/17 12:13:09;;;;;;;44.70;5.95;;;8.10;52.30;;;;;;5112532;28;20067;-74
2021/03/17 12:15:36;;;;;;;29.63;5.57;;;8.10;52.10;;;;;;5112476;28;20066;-73
2021/03/17 12:18:03;;;;;;;46.90;6.07;;;8.10;52.10;;;;;;5113066;28;20221;-73
2021/03/17 12:20:32;;;;;;;32.05;6.10;;;8.00;52.30;;;;;;5112643;28;20071;-73
2021/03/17 12:22:59;;;;;;;35.38;5.40;;;8.10;52.10;;;;;;5094851;28;20040;-72
2021/03/17 12:25:25;;;;;;;31.58;5.78;;;8.10;52.20;;;;;;5112792;28;20058;-79
2021/03/17 12:27:50;;;;;;;34.80;6.40;;;8.00;52.00;;;;;;5112923;28;20059;-74
2021/03/17 12:30:19;;;;;;;33.60;5.15;;;8.00;52.00;;;;;;5112946;28;20043;-75
2021/03/17 12:32:47;;;;;;;35.40;5.75;;;8.00;52.10;;;;;;5112647;28;20019;-72
2021/03/17 12:35:15;;;;;;;37.65;6.15;;;8.10;52.20;;;;;;5112677;28;20101;-70
2021/03/17 12:37:42;;;;;;;39.92;6.40;;;8.00;52.30;;;;;;5112332;28;20035;-72
2021/03/17 12:40:10;;;;;;;39.65;5.13;;;8.00;52.00;;;;;;5112226;28;20566;-71
2021/03/17 12:42:36;;;;;;;39.78;6.50;;;8.00;52.00;;;;;;5112272;28;20040;-72
2021/03/17 12:45:07;;;;;;;39.38;6.78;;;8.00;52.10;;;;;;5097222;28;20043;-70
2021/03/17 12:47:34;;;;;;;39.17;7.13;;;8.00;52.10;;;;;;5116108;28;20051;-70
2021/03/17 12:50:00;;;;;;;52.10;7.10;;;8.00;52.10;;;;;;5116296;28;20059;-70
2021/03/17 12:52:27;;;;;;;46.97;6.82;;;8.00;52.00;;;;;;5097631;28;20089;-71
2021/03/17 12:54:53;;;;;;;33.53;5.72;;;8.00;52.00;;;;;;5116242;28;20023;-73
2021/03/17 12:57:19;;;;;;;27.48;6.55;;;8.00;52.10;;;;;;5097879;28;20078;-71
2021/03/17 12:59:45;;;;;;;38.50;6.68;;;7.90;52.10;;;;;;5115685;28;20129;-72
2021/03/17 13:02:11;;;;;;;48.47;8.10;;;8.00;52.20;;;;;;5115653;28;20039;-73
2021/03/17 13:04:37;;;;;;;37.00;7.60;;;8.00;52.60;;;;;;5115717;28;20035;-72
2021/03/17 13:07:03;;;;;;;46.17;7.03;;;8.00;52.00;;;;;;5115840;28;20059;-75
2021/03/17 13:09:30;;;;;;;32.20;5.55;;;8.00;52.10;;;;;;5115879;28;20118;-77
2021/03/17 13:11:56;;;;;;;33.92;5.40;;;7.90;52.20;;;;;;5115424;28;20032;-75
2021/03/17 13:14:24;;;;;;;42.72;6.68;;;7.90;52.10;;;;;;5097337;28;20028;-74